createdAt,value
2018-06-29T00:00:07.118Z,16.10
2018-06-29T00:02:36.007Z,16.10
2018-06-29T00:05:05.799Z,16.20
2018-06-29T00:07:34.575Z,16.20
2018-06-29T00:10:03.395Z,16.20
2018-06-29T00:12:32.224Z,16.20
2018-06-29T00:15:01.008Z,16.20
2018-06-29T00:17:29.844Z,16.30
2018-06-29T00:19:58.620Z,16.30
2018-06-29T00:22:27.411Z,16.20
2018-06-29T00:24:56.192Z,16.20
2018-06-29T00:27:25.084Z,16.20
2018-06-29T00:29:53.831Z,16.20
2018-06-29T00:32:22.610Z,16.20
2018-06-29T00:34:51.386Z,16.20
2018-06-29T00:37:20.143Z,16.20
2018-06-29T00:39:50.302Z,16.20
2018-06-29T00:42:19.107Z,16.20
2018-06-29T00:44:47.869Z,16.10
2018-06-29T00:47:16.608Z,16.10
2018-06-29T00:49:45.396Z,16.10
2018-06-29T00:52:14.252Z,16.10
2018-06-29T00:54:43.088Z,16.00
2018-06-29T00:57:11.763Z,16.10
2018-06-29T00:59:40.593Z,16.00
2018-06-29T01:02:09.544Z,16.00
2018-06-29T01:04:38.333Z,16.10
2018-06-29T01:07:07.113Z,16.10
2018-06-29T01:09:35.911Z,16.10
2018-06-29T01:12:04.651Z,16.10
2018-06-29T01:14:33.415Z,16.10
2018-06-29T01:17:02.204Z,16.20
2018-06-29T01:19:30.987Z,16.20
2018-06-29T01:21:59.763Z,16.20
2018-06-29T01:24:28.580Z,16.20
2018-06-29T01:26:57.384Z,16.20
2018-06-29T01:29:26.228Z,16.20
2018-06-29T01:31:54.980Z,16.10
2018-06-29T01:34:23.748Z,16.20
2018-06-29T01:36:53.670Z,16.20
2018-06-29T01:39:22.440Z,16.20
2018-06-29T01:41:51.443Z,16.20
2018-06-29T01:44:20.203Z,16.20
2018-06-29T01:46:49.046Z,16.10
2018-06-29T01:49:17.803Z,16.00
2018-06-29T01:51:46.966Z,16.00
2018-06-29T01:54:16.602Z,16.00
2018-06-29T01:56:45.380Z,15.90
2018-06-29T01:59:14.152Z,15.90
2018-06-29T02:01:42.929Z,16.00
2018-06-29T02:04:11.704Z,15.90
2018-06-29T02:06:40.523Z,16.00
2018-06-29T02:09:10.040Z,16.00
2018-06-29T02:11:38.807Z,16.00
2018-06-29T02:14:07.563Z,16.00
2018-06-29T02:16:36.342Z,16.00
2018-06-29T02:19:05.112Z,15.90
2018-06-29T02:21:33.869Z,16.00
2018-06-29T02:24:02.612Z,15.90
2018-06-29T02:26:31.388Z,15.90
2018-06-29T02:29:00.158Z,16.00
2018-06-29T02:31:28.966Z,15.90
2018-06-29T02:33:57.682Z,16.00
2018-06-29T02:36:26.529Z,16.00
2018-06-29T02:38:55.290Z,15.90
2018-06-29T02:41:24.064Z,15.90
2018-06-29T02:43:52.819Z,15.80
2018-06-29T02:46:21.612Z,15.80
2018-06-29T02:48:50.380Z,15.90
2018-06-29T02:51:19.148Z,15.90
2018-06-29T02:53:47.900Z,15.90
2018-06-29T02:56:16.680Z,15.90
2018-06-29T02:58:45.438Z,16.00
2018-06-29T03:01:14.287Z,15.90
2018-06-29T03:03:43.037Z,16.00
2018-06-29T03:06:11.884Z,16.00
2018-06-29T03:08:40.639Z,16.10
2018-06-29T03:11:09.402Z,16.10
2018-06-29T03:13:38.351Z,16.10
2018-06-29T03:16:07.097Z,16.10
2018-06-29T03:18:35.936Z,16.10
2018-06-29T03:21:04.839Z,16.20
2018-06-29T03:23:33.603Z,16.10
2018-06-29T03:28:30.872Z,16.20
2018-06-29T03:30:59.615Z,16.20
2018-06-29T03:33:28.383Z,16.10
2018-06-29T03:35:57.143Z,16.10
2018-06-29T03:38:25.908Z,16.10
2018-06-29T03:40:54.666Z,16.10
2018-06-29T03:43:23.451Z,16.10
2018-06-29T03:45:52.327Z,16.10
2018-06-29T03:48:21.141Z,16.00
2018-06-29T03:50:49.883Z,16.10
2018-06-29T03:53:18.661Z,16.00
2018-06-29T03:55:47.440Z,16.10
2018-06-29T03:58:16.250Z,16.10
2018-06-29T04:00:44.972Z,16.00
2018-06-29T04:03:13.739Z,16.00
2018-06-29T04:05:42.493Z,15.90
2018-06-29T04:08:11.268Z,15.90
2018-06-29T04:13:08.455Z,15.90
2018-06-29T04:15:37.250Z,15.90
2018-06-29T04:18:06.030Z,15.90
2018-06-29T04:20:34.778Z,16.00
2018-06-29T04:23:03.576Z,15.90
2018-06-29T04:25:32.336Z,15.90
2018-06-29T04:28:01.124Z,15.90
2018-06-29T04:30:29.875Z,16.00
2018-06-29T04:32:58.749Z,16.00
2018-06-29T04:35:27.491Z,15.90
2018-06-29T04:37:56.348Z,15.90
2018-06-29T04:40:25.104Z,15.90
2018-06-29T04:42:53.905Z,16.00
2018-06-29T04:45:22.651Z,16.10
2018-06-29T04:47:51.424Z,16.10
2018-06-29T04:50:20.199Z,16.10
2018-06-29T04:52:48.986Z,16.20
2018-06-29T04:55:17.767Z,16.20
2018-06-29T04:57:46.547Z,16.20
2018-06-29T05:00:15.390Z,16.20
2018-06-29T05:02:47.722Z,16.20
2018-06-29T05:05:18.032Z,16.20
2018-06-29T05:07:53.056Z,16.20
2018-06-29T05:10:22.279Z,16.20
2018-06-29T05:12:51.215Z,16.20
2018-06-29T05:15:19.972Z,16.20
2018-06-29T05:17:48.754Z,16.30
2018-06-29T05:20:17.510Z,16.30
2018-06-29T05:22:46.283Z,16.30
2018-06-29T05:25:15.036Z,16.30
2018-06-29T05:27:43.896Z,16.40
2018-06-29T05:30:12.866Z,16.40
2018-06-29T05:32:42.429Z,16.40
2018-06-29T05:35:11.513Z,16.50
2018-06-29T05:37:40.630Z,16.50
2018-06-29T05:40:09.379Z,16.50
2018-06-29T05:42:38.232Z,16.40
2018-06-29T05:45:06.996Z,16.40
2018-06-29T05:47:35.770Z,16.30
2018-06-29T05:50:05.065Z,16.40
2018-06-29T05:52:35.016Z,16.50
2018-06-29T05:55:05.460Z,16.50
2018-06-29T05:57:34.237Z,16.50
2018-06-29T06:00:02.983Z,16.50
2018-06-29T06:02:31.757Z,16.60
2018-06-29T06:05:00.534Z,16.60
2018-06-29T06:07:29.301Z,16.60
2018-06-29T06:09:58.119Z,16.60
2018-06-29T06:12:26.817Z,16.60
2018-06-29T06:14:55.703Z,16.80
2018-06-29T06:17:24.478Z,16.90
2018-06-29T06:20:03.749Z,16.90
2018-06-29T06:22:32.860Z,17.10
2018-06-29T06:25:01.653Z,17.20
2018-06-29T06:27:30.390Z,17.30
2018-06-29T06:29:59.157Z,17.40
2018-06-29T06:32:27.907Z,17.40
2018-06-29T06:34:56.676Z,17.50
2018-06-29T06:37:26.435Z,17.40
2018-06-29T06:39:55.261Z,17.30
2018-06-29T06:42:24.051Z,17.40
2018-06-29T06:44:52.811Z,17.50
2018-06-29T06:47:21.575Z,17.50
2018-06-29T06:49:50.404Z,17.40
2018-06-29T06:52:19.164Z,17.40
2018-06-29T06:54:47.939Z,17.40
2018-06-29T06:57:16.700Z,17.50
2018-06-29T06:59:45.468Z,17.60
2018-06-29T07:02:14.237Z,17.70
2018-06-29T07:04:43.064Z,17.90
2018-06-29T07:07:12.017Z,18.00
2018-06-29T07:09:40.784Z,18.10
2018-06-29T07:12:09.553Z,18.10
2018-06-29T07:14:38.350Z,18.20
2018-06-29T07:17:07.182Z,18.20
2018-06-29T07:19:35.962Z,18.20
2018-06-29T07:22:04.803Z,18.40
2018-06-29T07:24:33.567Z,18.40
2018-06-29T07:27:02.324Z,18.50
2018-06-29T07:29:31.121Z,18.60
2018-06-29T07:31:59.881Z,18.60
2018-06-29T07:34:28.640Z,18.60
2018-06-29T07:36:57.392Z,18.70
2018-06-29T07:39:26.173Z,18.80
2018-06-29T07:41:54.955Z,18.80
2018-06-29T07:44:23.732Z,18.90
2018-06-29T07:46:52.487Z,19.00
2018-06-29T07:49:21.273Z,19.20
2018-06-29T07:51:50.009Z,19.20
2018-06-29T07:54:18.779Z,19.20
2018-06-29T07:56:47.552Z,19.30
2018-06-29T07:59:16.294Z,19.30
2018-06-29T08:01:45.068Z,19.30
2018-06-29T08:04:13.836Z,19.40
2018-06-29T08:06:42.820Z,19.40
2018-06-29T08:09:12.072Z,19.40
2018-06-29T08:11:40.844Z,19.40
2018-06-29T08:14:09.603Z,19.20
2018-06-29T08:16:38.372Z,19.30
2018-06-29T08:19:07.126Z,19.30
2018-06-29T08:21:35.888Z,19.50
2018-06-29T08:24:04.666Z,19.50
2018-06-29T08:26:33.449Z,19.50
2018-06-29T08:29:02.233Z,19.60
2018-06-29T08:31:30.998Z,19.60
2018-06-29T08:33:59.752Z,19.50
2018-06-29T08:36:28.508Z,19.50
2018-06-29T08:38:57.286Z,19.70
2018-06-29T08:41:26.061Z,19.70
2018-06-29T08:43:54.800Z,19.80
2018-06-29T08:46:23.599Z,19.80
2018-06-29T08:48:52.403Z,19.70
2018-06-29T08:51:21.186Z,19.70
2018-06-29T08:53:49.924Z,19.90
2018-06-29T08:56:18.684Z,20.00
2018-06-29T08:58:47.492Z,20.00
2018-06-29T09:01:16.226Z,20.20
2018-06-29T09:03:45.008Z,20.40
2018-06-29T09:06:13.760Z,20.40
2018-06-29T09:08:42.523Z,20.40
2018-06-29T09:11:11.303Z,20.40
2018-06-29T09:13:40.065Z,20.60
2018-06-29T09:16:08.845Z,20.60
2018-06-29T09:18:37.586Z,20.60
2018-06-29T09:21:06.373Z,20.70
2018-06-29T09:23:35.143Z,20.70
2018-06-29T09:26:03.906Z,20.60
2018-06-29T09:28:32.644Z,20.60
2018-06-29T09:31:01.415Z,20.70
2018-06-29T09:33:30.161Z,20.70
2018-06-29T09:35:58.920Z,20.60
2018-06-29T09:38:27.686Z,20.50
2018-06-29T09:40:56.460Z,20.70
2018-06-29T09:43:25.211Z,20.50
2018-06-29T09:45:54.009Z,20.70
2018-06-29T09:48:22.846Z,20.90
2018-06-29T09:50:51.612Z,21.10
2018-06-29T09:53:20.362Z,21.10
2018-06-29T09:55:49.118Z,21.30
2018-06-29T09:58:17.888Z,21.30
2018-06-29T10:00:46.714Z,21.40
2018-06-29T10:03:15.575Z,21.50
2018-06-29T10:05:44.327Z,21.40
2018-06-29T10:08:13.093Z,21.70
2018-06-29T10:10:41.878Z,21.80
2018-06-29T10:13:10.632Z,21.80
2018-06-29T10:15:39.441Z,21.70
2018-06-29T10:18:08.235Z,21.80
2018-06-29T10:20:37.024Z,21.90
2018-06-29T10:25:34.395Z,22.40
2018-06-29T10:28:03.128Z,22.50
2018-06-29T10:30:31.848Z,22.90
2018-06-29T10:35:29.072Z,23.20
2018-06-29T10:37:58.354Z,23.30
2018-06-29T10:40:27.219Z,23.20
2018-06-29T10:42:55.989Z,23.20
2018-06-29T10:47:53.187Z,22.90
2018-06-29T10:50:21.948Z,22.90
2018-06-29T10:52:50.782Z,22.80
2018-06-29T10:55:19.477Z,22.90
2018-06-29T10:57:48.276Z,23.10
2018-06-29T11:00:17.278Z,23.00
2018-06-29T11:02:46.075Z,23.10
2018-06-29T11:05:14.845Z,23.40
2018-06-29T11:07:43.599Z,23.60
2018-06-29T11:10:12.362Z,23.80
2018-06-29T11:12:41.139Z,23.80
2018-06-29T11:15:10.196Z,23.80
2018-06-29T11:17:38.965Z,24.10
2018-06-29T11:20:07.798Z,24.40
2018-06-29T11:22:36.580Z,24.40
2018-06-29T11:25:05.344Z,24.90
2018-06-29T11:27:34.152Z,24.80
2018-06-29T11:30:02.920Z,25.00
2018-06-29T11:32:31.675Z,25.20
2018-06-29T11:35:00.463Z,25.30
2018-06-29T11:37:29.224Z,25.20
2018-06-29T11:39:57.976Z,25.20
2018-06-29T11:42:26.744Z,25.50
2018-06-29T11:44:55.481Z,25.40
2018-06-29T11:47:24.231Z,25.20
2018-06-29T11:49:53.063Z,25.60
2018-06-29T11:52:21.818Z,26.20
2018-06-29T11:54:50.581Z,26.30
2018-06-29T11:57:19.336Z,25.90
2018-06-29T11:59:48.108Z,25.70
2018-06-29T12:02:16.861Z,25.90
2018-06-29T12:04:45.652Z,26.10
2018-06-29T12:07:14.470Z,26.40
2018-06-29T12:09:43.188Z,26.60
2018-06-29T12:12:11.938Z,26.60
2018-06-29T12:14:40.700Z,26.40
2018-06-29T12:17:09.451Z,26.10
2018-06-29T12:19:38.396Z,26.30
2018-06-29T12:22:07.177Z,26.30
2018-06-29T12:24:35.963Z,26.20
2018-06-29T12:27:04.831Z,25.90
2018-06-29T12:29:33.587Z,26.00
2018-06-29T12:32:02.357Z,26.60
2018-06-29T12:34:31.150Z,26.70
2018-06-29T12:36:59.884Z,26.60
2018-06-29T12:39:28.659Z,26.50
2018-06-29T12:41:57.415Z,26.80
2018-06-29T12:44:26.181Z,26.40
2018-06-29T12:46:54.969Z,26.20
2018-06-29T12:49:23.748Z,26.30
2018-06-29T12:51:52.499Z,26.70
2018-06-29T12:54:21.255Z,26.60
2018-06-29T12:56:50.016Z,26.80
2018-06-29T12:59:18.767Z,27.30
2018-06-29T13:01:47.511Z,27.80
2018-06-29T13:04:16.264Z,27.80
2018-06-29T13:06:45.007Z,27.70
2018-06-29T13:09:13.789Z,28.00
2018-06-29T13:11:42.530Z,28.30
2018-06-29T13:14:11.307Z,28.50
2018-06-29T13:16:40.051Z,28.60
2018-06-29T13:19:08.824Z,28.70
2018-06-29T13:21:37.573Z,28.80
2018-06-29T13:24:06.340Z,28.50
2018-06-29T13:26:35.149Z,28.60
2018-06-29T13:29:03.928Z,28.80
2018-06-29T13:31:32.727Z,28.50
2018-06-29T13:34:01.501Z,28.20
2018-06-29T13:36:30.260Z,28.00
2018-06-29T13:38:59.018Z,27.40
2018-06-29T13:41:27.806Z,27.40
2018-06-29T13:46:25.043Z,28.00
2018-06-29T13:48:53.885Z,28.40
2018-06-29T13:51:22.602Z,28.60
2018-06-29T13:53:51.363Z,28.70
2018-06-29T13:56:20.106Z,29.10
2018-06-29T13:58:48.872Z,29.40
2018-06-29T14:01:17.659Z,29.60
2018-06-29T14:03:46.409Z,29.80
2018-06-29T14:06:15.163Z,29.80
2018-06-29T14:08:43.918Z,29.90
2018-06-29T14:11:12.667Z,29.90
2018-06-29T14:13:41.455Z,29.40
2018-06-29T14:16:10.220Z,29.40
2018-06-29T14:18:38.967Z,29.50
2018-06-29T14:21:07.762Z,29.60
2018-06-29T14:23:36.577Z,29.50
2018-06-29T14:26:05.522Z,29.70
2018-06-29T14:28:34.269Z,29.30
2018-06-29T14:31:03.072Z,29.20
2018-06-29T14:33:31.835Z,29.10
2018-06-29T14:36:00.575Z,29.40
2018-06-29T14:38:29.342Z,29.50
2018-06-29T14:40:58.116Z,29.60
2018-06-29T14:43:26.858Z,29.60
2018-06-29T14:45:55.613Z,29.50
2018-06-29T14:48:24.367Z,29.20
2018-06-29T14:50:53.274Z,29.00
2018-06-29T14:53:22.132Z,28.80
2018-06-29T14:55:50.933Z,28.10
2018-06-29T15:00:48.714Z,27.90
2018-06-29T15:03:18.101Z,27.50
2018-06-29T15:05:47.408Z,27.40
2018-06-29T15:08:16.775Z,27.60
2018-06-29T15:10:46.097Z,27.60
2018-06-29T15:13:15.283Z,27.90
2018-06-29T15:15:44.759Z,28.10
2018-06-29T15:18:13.986Z,28.10
2018-06-29T15:20:43.204Z,28.10
2018-06-29T15:23:12.115Z,28.10
2018-06-29T15:25:41.046Z,27.90
2018-06-29T15:28:10.445Z,27.70
2018-06-29T15:30:39.721Z,27.70
2018-06-29T15:33:08.801Z,27.50
2018-06-29T15:35:38.238Z,27.20
2018-06-29T15:38:07.668Z,27.10
2018-06-29T15:40:36.989Z,27.00
2018-06-29T15:43:08.742Z,27.10
2018-06-29T15:45:38.057Z,27.30
2018-06-29T15:48:07.125Z,27.40
2018-06-29T15:50:35.900Z,27.70
2018-06-29T15:53:04.652Z,27.70
2018-06-29T15:55:33.696Z,27.80
2018-06-29T15:58:02.530Z,27.90
2018-06-29T16:00:31.404Z,28.10
2018-06-29T16:03:00.144Z,28.00
2018-06-29T16:05:28.921Z,28.10
2018-06-29T16:07:57.751Z,28.10
2018-06-29T16:10:26.584Z,28.00
2018-06-29T16:12:55.402Z,28.10
2018-06-29T16:15:24.124Z,28.10
2018-06-29T16:17:52.919Z,28.10
2018-06-29T16:20:21.679Z,28.20
2018-06-29T16:22:50.426Z,28.00
2018-06-29T16:25:19.263Z,28.20
2018-06-29T16:27:48.025Z,28.20
2018-06-29T16:30:16.831Z,28.20
2018-06-29T16:32:45.615Z,28.20
2018-06-29T16:35:14.368Z,28.10
2018-06-29T16:37:45.524Z,28.30
2018-06-29T16:40:14.272Z,28.20
2018-06-29T16:42:43.061Z,28.00
2018-06-29T16:45:11.795Z,28.00
2018-06-29T16:47:40.672Z,28.00
2018-06-29T16:50:09.428Z,28.10
2018-06-29T16:52:38.192Z,27.80
2018-06-29T16:55:07.081Z,27.90
2018-06-29T16:57:35.856Z,27.90
2018-06-29T17:00:05.623Z,28.00
2018-06-29T17:02:34.400Z,27.80
2018-06-29T17:05:03.264Z,27.80
2018-06-29T17:07:32.044Z,27.90
2018-06-29T17:10:00.795Z,27.70
2018-06-29T17:12:29.568Z,27.60
2018-06-29T17:14:58.336Z,27.40
2018-06-29T17:17:27.200Z,27.40
2018-06-29T17:19:56.048Z,27.30
2018-06-29T17:22:24.792Z,27.40
2018-06-29T17:24:53.584Z,27.50
2018-06-29T17:27:22.355Z,27.40
2018-06-29T17:29:51.107Z,27.10
2018-06-29T17:32:19.872Z,27.10
2018-06-29T17:34:48.652Z,26.80
2018-06-29T17:37:17.428Z,26.80
2018-06-29T17:39:46.188Z,26.80
2018-06-29T17:42:14.991Z,26.80
2018-06-29T17:44:43.764Z,26.60
2018-06-29T17:47:12.678Z,26.60
2018-06-29T17:49:41.456Z,26.50
2018-06-29T17:52:10.254Z,26.50
2018-06-29T17:54:39.028Z,26.50
2018-06-29T17:57:07.835Z,26.40
2018-06-29T17:59:36.716Z,26.30
2018-06-29T18:02:05.504Z,26.30
2018-06-29T18:04:34.360Z,26.20
2018-06-29T18:07:03.218Z,26.10
2018-06-29T18:09:31.932Z,26.00
2018-06-29T18:12:00.699Z,25.90
2018-06-29T18:14:29.540Z,25.90
2018-06-29T18:16:58.316Z,25.90
2018-06-29T18:19:27.100Z,25.80
2018-06-29T18:21:55.938Z,25.70
2018-06-29T18:24:24.707Z,25.80
2018-06-29T18:26:53.499Z,25.70
2018-06-29T18:29:22.279Z,25.60
2018-06-29T18:31:51.164Z,25.60
2018-06-29T18:34:25.106Z,25.40
2018-06-29T18:36:53.880Z,25.30
2018-06-29T18:39:22.763Z,25.10
2018-06-29T18:41:51.528Z,25.00
2018-06-29T18:44:20.303Z,25.00
2018-06-29T18:46:49.270Z,24.70
2018-06-29T18:49:18.002Z,24.60
2018-06-29T18:51:46.741Z,24.50
2018-06-29T18:54:15.502Z,24.30
2018-06-29T18:56:44.306Z,24.20
2018-06-29T18:59:13.044Z,24.10
2018-06-29T19:04:10.756Z,24.00
2018-06-29T19:06:39.503Z,23.90
2018-06-29T19:11:38.345Z,23.80
2018-06-29T19:14:07.281Z,23.60
2018-06-29T19:16:36.481Z,23.50
2018-06-29T19:19:05.509Z,23.50
2018-06-29T19:21:34.277Z,23.40
2018-06-29T19:26:31.507Z,23.10
2018-06-29T19:29:00.359Z,23.20
2018-06-29T19:31:29.120Z,23.00
2018-06-29T19:33:57.887Z,22.80
2018-06-29T19:36:26.714Z,22.70
2018-06-29T19:38:55.923Z,22.60
2018-06-29T19:41:25.031Z,22.50
2018-06-29T19:43:54.157Z,22.40
2018-06-29T19:46:23.416Z,22.40
2018-06-29T19:48:52.292Z,22.30
2018-06-29T19:51:21.333Z,22.20
2018-06-29T19:53:50.120Z,22.10
2018-06-29T19:56:19.000Z,22.10
2018-06-29T19:58:48.456Z,21.90
2018-06-29T20:01:17.906Z,21.90
2018-06-29T20:03:46.774Z,21.70
2018-06-29T20:06:15.788Z,21.70
2018-06-29T20:08:44.544Z,21.60
2018-06-29T20:11:13.461Z,21.60
2018-06-29T20:13:42.688Z,21.60
2018-06-29T20:16:11.501Z,21.60
2018-06-29T20:18:40.259Z,21.70
2018-06-29T20:21:09.019Z,21.50
2018-06-29T20:23:37.808Z,21.50
2018-06-29T20:26:06.557Z,21.40
2018-06-29T20:33:32.316Z,21.10
2018-06-29T20:36:01.239Z,21.00
2018-06-29T20:38:30.101Z,20.90
2018-06-29T20:40:58.784Z,20.80
2018-06-29T20:43:28.239Z,20.80
2018-06-29T20:45:57.011Z,20.80
2018-06-29T20:48:25.825Z,20.80
2018-06-29T20:50:54.644Z,20.70
2018-06-29T20:53:23.431Z,20.60
2018-06-29T20:55:52.355Z,20.60
2018-06-29T20:58:21.242Z,20.50
2018-06-29T21:00:50.088Z,20.50
2018-06-29T21:03:19.024Z,20.50
2018-06-29T21:05:47.888Z,20.50
2018-06-29T21:08:16.755Z,20.50
2018-06-29T21:10:45.560Z,20.50
2018-06-29T21:13:14.339Z,20.50
2018-06-29T21:15:43.112Z,20.40
2018-06-29T21:18:11.896Z,20.30
2018-06-29T21:20:40.771Z,20.30
2018-06-29T21:23:09.615Z,20.20
2018-06-29T21:25:38.380Z,20.20
2018-06-29T21:28:07.206Z,20.20
2018-06-29T21:30:35.971Z,20.10
2018-06-29T21:33:04.775Z,20.10
2018-06-29T21:35:33.530Z,20.10
2018-06-29T21:38:02.322Z,20.00
2018-06-29T21:40:31.603Z,20.00
2018-06-29T21:43:00.380Z,20.00
2018-06-29T21:45:29.164Z,20.00
2018-06-29T21:47:57.943Z,20.00
2018-06-29T21:50:26.773Z,19.90
2018-06-29T21:52:55.534Z,19.90
2018-06-29T21:55:24.291Z,19.80
2018-06-29T21:57:53.063Z,19.70
2018-06-29T22:00:21.999Z,19.70
2018-06-29T22:02:50.769Z,19.60
2018-06-29T22:05:19.611Z,19.60
2018-06-29T22:07:48.398Z,19.60
2018-06-29T22:10:17.171Z,19.60
2018-06-29T22:12:46.039Z,19.50
2018-06-29T22:15:23.445Z,19.50
2018-06-29T22:17:52.740Z,19.50
2018-06-29T22:20:22.064Z,19.40
2018-06-29T22:22:50.881Z,19.40
2018-06-29T22:25:20.133Z,19.40
2018-06-29T22:27:49.234Z,19.30
2018-06-29T22:30:18.850Z,19.20
2018-06-29T22:32:48.029Z,19.20
2018-06-29T22:35:16.983Z,19.20
2018-06-29T22:37:46.311Z,19.10
2018-06-29T22:40:15.059Z,19.10
2018-06-29T22:42:43.835Z,19.10
2018-06-29T22:45:12.622Z,19.20
2018-06-29T22:50:09.844Z,19.10
2018-06-29T22:52:38.608Z,19.00
2018-06-29T22:55:07.504Z,19.00
2018-06-29T22:57:36.361Z,19.00
2018-06-29T23:00:05.419Z,18.90
2018-06-29T23:02:34.223Z,18.90
2018-06-29T23:05:03.802Z,18.80
2018-06-29T23:07:32.559Z,18.80
2018-06-29T23:10:01.501Z,18.70
2018-06-29T23:12:30.265Z,18.70
2018-06-29T23:14:59.020Z,18.70
2018-06-29T23:17:27.783Z,18.60
2018-06-29T23:19:56.536Z,18.60
2018-06-29T23:22:25.308Z,18.60
2018-06-29T23:24:54.047Z,18.50
2018-06-29T23:27:22.799Z,18.50
2018-06-29T23:29:51.560Z,18.50
2018-06-29T23:32:20.331Z,18.60
2018-06-29T23:34:49.080Z,18.60
2018-06-29T23:37:17.876Z,18.40
2018-06-29T23:39:46.687Z,18.40
2018-06-29T23:42:15.466Z,18.40
2018-06-29T23:44:44.264Z,18.40
2018-06-29T23:47:13.031Z,18.30
2018-06-29T23:49:41.865Z,18.20
2018-06-29T23:52:10.850Z,18.20
2018-06-29T23:54:39.601Z,18.10
2018-06-29T23:57:08.407Z,18.10
2018-06-29T23:59:37.162Z,18.10
